sensor_id;sensor_type;location;lat;lon;timestamp;P1;durP1;ratioP1;P2;durP2;ratioP2
23561;SDS011;11959;49.418;8.728;2022-11-27T00:02:21;16.40;;;9.70;;
23561;SDS011;11959;49.418;8.728;2022-11-27T00:04:47;22.67;;;9.55;;
23561;SDS011;11959;49.418;8.728;2022-11-27T00:07:12;23.75;;;9.65;;
23561;SDS011;11959;49.418;8.728;2022-11-27T00:09:38;25.02;;;9.10;;
23561;SDS011;11959;49.418;8.728;2022-11-27T00:12:04;24.83;;;9.43;;
23561;SDS011;11959;49.418;8.728;2022-11-27T00:14:29;18.52;;;9.02;;
23561;SDS011;11959;49.418;8.728;2022-11-27T00:16:55;21.73;;;9.95;;
23561;SDS011;11959;49.418;8.728;2022-11-27T00:19:23;49.70;;;12.48;;
23561;SDS011;11959;49.418;8.728;2022-11-27T00:21:49;34.72;;;10.90;;
23561;SDS011;11959;49.418;8.728;2022-11-27T00:24:15;16.70;;;9.75;;
23561;SDS011;11959;49.418;8.728;2022-11-27T00:26:40;22.95;;;10.05;;
23561;SDS011;11959;49.418;8.728;2022-11-27T00:29:06;32.38;;;10.75;;
23561;SDS011;11959;49.418;8.728;2022-11-27T00:31:33;34.10;;;11.30;;
23561;SDS011;11959;49.418;8.728;2022-11-27T00:34:01;14.82;;;9.88;;
23561;SDS011;11959;49.418;8.728;2022-11-27T00:36:29;22.50;;;11.43;;
23561;SDS011;11959;49.418;8.728;2022-11-27T00:38:55;34.85;;;11.63;;
23561;SDS011;11959;49.418;8.728;2022-11-27T00:41:22;38.30;;;12.00;;
23561;SDS011;11959;49.418;8.728;2022-11-27T00:43:49;24.80;;;10.77;;
23561;SDS011;11959;49.418;8.728;2022-11-27T00:46:16;36.35;;;11.43;;
23561;SDS011;11959;49.418;8.728;2022-11-27T00:48:44;21.85;;;10.50;;
23561;SDS011;11959;49.418;8.728;2022-11-27T00:51:11;24.05;;;11.13;;
23561;SDS011;11959;49.418;8.728;2022-11-27T00:53:38;29.02;;;10.85;;
23561;SDS011;11959;49.418;8.728;2022-11-27T00:56:04;19.75;;;10.48;;
23561;SDS011;11959;49.418;8.728;2022-11-27T00:58:30;19.98;;;10.32;;
23561;SDS011;11959;49.418;8.728;2022-11-27T01:00:57;31.38;;;10.27;;
23561;SDS011;11959;49.418;8.728;2022-11-27T01:03:25;15.38;;;9.85;;
23561;SDS011;11959;49.418;8.728;2022-11-27T01:05:52;43.13;;;11.98;;
23561;SDS011;11959;49.418;8.728;2022-11-27T01:08:18;35.90;;;11.65;;
23561;SDS011;11959;49.418;8.728;2022-11-27T01:10:54;19.35;;;10.45;;
23561;SDS011;11959;49.418;8.728;2022-11-27T01:13:22;22.27;;;10.88;;
23561;SDS011;11959;49.418;8.728;2022-11-27T01:16:03;77.85;;;15.60;;
23561;SDS011;11959;49.418;8.728;2022-11-27T01:18:31;41.55;;;11.55;;
23561;SDS011;11959;49.418;8.728;2022-11-27T01:20:58;25.75;;;10.68;;
23561;SDS011;11959;49.418;8.728;2022-11-27T01:23:23;19.00;;;10.45;;
23561;SDS011;11959;49.418;8.728;2022-11-27T01:25:50;33.25;;;11.88;;
23561;SDS011;11959;49.418;8.728;2022-11-27T01:28:17;43.45;;;12.52;;
23561;SDS011;11959;49.418;8.728;2022-11-27T01:30:44;75.18;;;15.00;;
23561;SDS011;11959;49.418;8.728;2022-11-27T01:33:10;20.88;;;11.27;;
23561;SDS011;11959;49.418;8.728;2022-11-27T01:35:36;32.95;;;12.88;;
23561;SDS011;11959;49.418;8.728;2022-11-27T01:38:01;31.75;;;14.02;;
23561;SDS011;11959;49.418;8.728;2022-11-27T01:40:27;42.08;;;15.80;;
23561;SDS011;11959;49.418;8.728;2022-11-27T01:42:53;52.67;;;19.05;;
23561;SDS011;11959;49.418;8.728;2022-11-27T01:45:19;60.65;;;16.73;;
23561;SDS011;11959;49.418;8.728;2022-11-27T01:47:46;27.27;;;13.38;;
23561;SDS011;11959;49.418;8.728;2022-11-27T01:50:37;32.38;;;15.25;;
23561;SDS011;11959;49.418;8.728;2022-11-27T01:53:05;50.92;;;18.20;;
23561;SDS011;11959;49.418;8.728;2022-11-27T01:55:41;39.38;;;14.07;;
23561;SDS011;11959;49.418;8.728;2022-11-27T01:58:11;35.72;;;13.52;;
23561;SDS011;11959;49.418;8.728;2022-11-27T02:00:42;72.47;;;17.35;;
23561;SDS011;11959;49.418;8.728;2022-11-27T02:03:08;80.18;;;15.57;;
23561;SDS011;11959;49.418;8.728;2022-11-27T02:05:33;58.42;;;14.90;;
23561;SDS011;11959;49.418;8.728;2022-11-27T02:08:01;101.65;;;17.55;;
23561;SDS011;11959;49.418;8.728;2022-11-27T02:10:53;117.15;;;18.33;;
23561;SDS011;11959;49.418;8.728;2022-11-27T02:13:56;145.23;;;19.40;;
23561;SDS011;11959;49.418;8.728;2022-11-27T02:18:51;80.30;;;15.68;;
23561;SDS011;11959;49.418;8.728;2022-11-27T02:21:22;32.20;;;12.27;;
23561;SDS011;11959;49.418;8.728;2022-11-27T02:26:40;28.85;;;12.88;;
23561;SDS011;11959;49.418;8.728;2022-11-27T02:29:24;38.65;;;13.93;;
23561;SDS011;11959;49.418;8.728;2022-11-27T02:37:06;60.03;;;14.63;;
23561;SDS011;11959;49.418;8.728;2022-11-27T02:42:45;28.80;;;13.25;;
23561;SDS011;11959;49.418;8.728;2022-11-27T02:45:16;26.15;;;13.20;;
23561;SDS011;11959;49.418;8.728;2022-11-27T02:47:47;27.13;;;12.30;;
23561;SDS011;11959;49.418;8.728;2022-11-27T02:50:15;28.50;;;12.85;;
23561;SDS011;11959;49.418;8.728;2022-11-27T02:52:45;26.20;;;13.65;;
23561;SDS011;11959;49.418;8.728;2022-11-27T02:55:14;27.20;;;15.00;;
23561;SDS011;11959;49.418;8.728;2022-11-27T02:57:42;27.35;;;13.68;;
23561;SDS011;11959;49.418;8.728;2022-11-27T03:00:09;24.38;;;13.48;;
23561;SDS011;11959;49.418;8.728;2022-11-27T03:02:38;26.80;;;13.10;;
23561;SDS011;11959;49.418;8.728;2022-11-27T03:05:07;21.10;;;12.05;;
23561;SDS011;11959;49.418;8.728;2022-11-27T03:10:31;23.70;;;12.82;;
23561;SDS011;11959;49.418;8.728;2022-11-27T03:13:10;22.52;;;12.20;;
23561;SDS011;11959;49.418;8.728;2022-11-27T03:15:38;24.60;;;13.93;;
23561;SDS011;11959;49.418;8.728;2022-11-27T03:18:16;22.30;;;12.63;;
23561;SDS011;11959;49.418;8.728;2022-11-27T03:20:51;19.42;;;11.38;;
23561;SDS011;11959;49.418;8.728;2022-11-27T03:23:28;24.60;;;12.77;;
23561;SDS011;11959;49.418;8.728;2022-11-27T03:25:53;26.33;;;13.93;;
23561;SDS011;11959;49.418;8.728;2022-11-27T03:28:19;25.05;;;13.25;;
23561;SDS011;11959;49.418;8.728;2022-11-27T03:30:46;39.95;;;12.75;;
23561;SDS011;11959;49.418;8.728;2022-11-27T03:33:11;25.35;;;11.77;;
23561;SDS011;11959;49.418;8.728;2022-11-27T03:35:37;21.80;;;11.68;;
23561;SDS011;11959;49.418;8.728;2022-11-27T03:38:03;27.02;;;11.48;;
23561;SDS011;11959;49.418;8.728;2022-11-27T03:40:32;23.48;;;11.95;;
23561;SDS011;11959;49.418;8.728;2022-11-27T03:43:17;24.25;;;12.25;;
23561;SDS011;11959;49.418;8.728;2022-11-27T03:45:55;17.40;;;11.45;;
23561;SDS011;11959;49.418;8.728;2022-11-27T03:48:36;19.90;;;11.52;;
23561;SDS011;11959;49.418;8.728;2022-11-27T03:53:58;20.98;;;11.68;;
23561;SDS011;11959;49.418;8.728;2022-11-27T03:56:38;18.17;;;11.30;;
23561;SDS011;11959;49.418;8.728;2022-11-27T03:59:13;21.88;;;10.65;;
23561;SDS011;11959;49.418;8.728;2022-11-27T04:01:42;20.88;;;11.98;;
23561;SDS011;11959;49.418;8.728;2022-11-27T04:04:07;31.15;;;11.15;;
23561;SDS011;11959;49.418;8.728;2022-11-27T04:06:33;20.90;;;11.27;;
23561;SDS011;11959;49.418;8.728;2022-11-27T04:08:59;17.77;;;9.65;;
23561;SDS011;11959;49.418;8.728;2022-11-27T04:11:24;30.77;;;10.70;;
23561;SDS011;11959;49.418;8.728;2022-11-27T04:13:51;45.33;;;11.38;;
23561;SDS011;11959;49.418;8.728;2022-11-27T04:16:17;26.27;;;9.85;;
23561;SDS011;11959;49.418;8.728;2022-11-27T04:18:43;25.77;;;10.05;;
23561;SDS011;11959;49.418;8.728;2022-11-27T04:21:09;37.30;;;10.75;;
23561;SDS011;11959;49.418;8.728;2022-11-27T04:23:36;33.67;;;11.30;;
23561;SDS011;11959;49.418;8.728;2022-11-27T04:26:03;21.60;;;9.57;;
23561;SDS011;11959;49.418;8.728;2022-11-27T04:28:29;26.88;;;11.07;;
23561;SDS011;11959;49.418;8.728;2022-11-27T04:30:55;26.60;;;10.77;;
23561;SDS011;11959;49.418;8.728;2022-11-27T04:33:21;72.07;;;14.50;;
23561;SDS011;11959;49.418;8.728;2022-11-27T04:35:48;44.55;;;12.55;;
23561;SDS011;11959;49.418;8.728;2022-11-27T04:38:17;24.75;;;11.35;;
23561;SDS011;11959;49.418;8.728;2022-11-27T04:40:43;65.32;;;14.90;;
23561;SDS011;11959;49.418;8.728;2022-11-27T04:43:09;50.30;;;13.05;;
23561;SDS011;11959;49.418;8.728;2022-11-27T04:45:36;43.28;;;14.07;;
23561;SDS011;11959;49.418;8.728;2022-11-27T04:48:03;79.88;;;15.35;;
23561;SDS011;11959;49.418;8.728;2022-11-27T04:50:29;41.03;;;13.10;;
23561;SDS011;11959;49.418;8.728;2022-11-27T04:52:55;83.72;;;15.68;;
23561;SDS011;11959;49.418;8.728;2022-11-27T04:55:21;87.05;;;16.05;;
23561;SDS011;11959;49.418;8.728;2022-11-27T04:57:46;28.08;;;12.43;;
23561;SDS011;11959;49.418;8.728;2022-11-27T05:00:12;67.15;;;14.80;;
23561;SDS011;11959;49.418;8.728;2022-11-27T05:02:38;50.20;;;13.88;;
23561;SDS011;11959;49.418;8.728;2022-11-27T05:05:04;34.15;;;12.38;;
23561;SDS011;11959;49.418;8.728;2022-11-27T05:07:30;29.30;;;11.88;;
23561;SDS011;11959;49.418;8.728;2022-11-27T05:09:55;27.42;;;11.35;;
23561;SDS011;11959;49.418;8.728;2022-11-27T05:12:21;26.10;;;11.88;;
23561;SDS011;11959;49.418;8.728;2022-11-27T05:14:47;45.03;;;12.77;;
23561;SDS011;11959;49.418;8.728;2022-11-27T05:17:12;32.50;;;12.88;;
23561;SDS011;11959;49.418;8.728;2022-11-27T05:19:38;29.27;;;13.07;;
23561;SDS011;11959;49.418;8.728;2022-11-27T05:22:04;31.90;;;13.18;;
23561;SDS011;11959;49.418;8.728;2022-11-27T05:24:29;21.60;;;12.18;;
23561;SDS011;11959;49.418;8.728;2022-11-27T05:26:55;23.17;;;11.05;;
23561;SDS011;11959;49.418;8.728;2022-11-27T05:29:22;22.02;;;11.23;;
23561;SDS011;11959;49.418;8.728;2022-11-27T05:31:48;21.77;;;11.43;;
23561;SDS011;11959;49.418;8.728;2022-11-27T05:34:14;20.08;;;11.45;;
23561;SDS011;11959;49.418;8.728;2022-11-27T05:36:40;24.00;;;12.90;;
23561;SDS011;11959;49.418;8.728;2022-11-27T05:39:07;22.48;;;12.40;;
23561;SDS011;11959;49.418;8.728;2022-11-27T05:41:35;22.30;;;12.82;;
23561;SDS011;11959;49.418;8.728;2022-11-27T05:44:02;20.38;;;11.98;;
23561;SDS011;11959;49.418;8.728;2022-11-27T05:46:28;25.55;;;11.80;;
23561;SDS011;11959;49.418;8.728;2022-11-27T05:48:54;20.45;;;11.93;;
23561;SDS011;11959;49.418;8.728;2022-11-27T05:51:20;23.50;;;12.73;;
23561;SDS011;11959;49.418;8.728;2022-11-27T05:53:45;22.00;;;11.90;;
23561;SDS011;11959;49.418;8.728;2022-11-27T05:56:13;22.02;;;12.50;;
23561;SDS011;11959;49.418;8.728;2022-11-27T05:58:41;21.83;;;12.57;;
23561;SDS011;11959;49.418;8.728;2022-11-27T06:01:08;21.92;;;11.57;;
23561;SDS011;11959;49.418;8.728;2022-11-27T06:03:35;20.85;;;12.27;;
23561;SDS011;11959;49.418;8.728;2022-11-27T06:06:36;22.42;;;12.45;;
23561;SDS011;11959;49.418;8.728;2022-11-27T06:08:55;22.67;;;12.48;;
23561;SDS011;11959;49.418;8.728;2022-11-27T06:11:21;19.15;;;10.43;;
23561;SDS011;11959;49.418;8.728;2022-11-27T06:13:47;21.52;;;12.32;;
23561;SDS011;11959;49.418;8.728;2022-11-27T06:16:18;22.60;;;13.15;;
23561;SDS011;11959;49.418;8.728;2022-11-27T06:18:49;16.92;;;11.05;;
23561;SDS011;11959;49.418;8.728;2022-11-27T06:21:20;22.00;;;11.48;;
23561;SDS011;11959;49.418;8.728;2022-11-27T06:23:47;21.77;;;11.90;;
23561;SDS011;11959;49.418;8.728;2022-11-27T06:28:43;18.70;;;11.05;;
23561;SDS011;11959;49.418;8.728;2022-11-27T06:31:10;23.00;;;11.95;;
23561;SDS011;11959;49.418;8.728;2022-11-27T06:33:37;22.35;;;12.02;;
23561;SDS011;11959;49.418;8.728;2022-11-27T06:36:04;26.23;;;13.43;;
23561;SDS011;11959;49.418;8.728;2022-11-27T06:38:33;20.85;;;11.85;;
23561;SDS011;11959;49.418;8.728;2022-11-27T06:41:11;20.70;;;11.73;;
23561;SDS011;11959;49.418;8.728;2022-11-27T06:43:42;20.77;;;12.10;;
23561;SDS011;11959;49.418;8.728;2022-11-27T06:46:09;22.75;;;12.27;;
23561;SDS011;11959;49.418;8.728;2022-11-27T06:48:37;23.30;;;12.63;;
23561;SDS011;11959;49.418;8.728;2022-11-27T06:51:04;22.75;;;12.10;;
23561;SDS011;11959;49.418;8.728;2022-11-27T06:53:32;24.85;;;12.52;;
23561;SDS011;11959;49.418;8.728;2022-11-27T06:56:01;21.20;;;11.30;;
23561;SDS011;11959;49.418;8.728;2022-11-27T06:58:27;24.15;;;12.05;;
23561;SDS011;11959;49.418;8.728;2022-11-27T07:01:00;23.58;;;12.82;;
23561;SDS011;11959;49.418;8.728;2022-11-27T07:03:28;23.52;;;12.57;;
23561;SDS011;11959;49.418;8.728;2022-11-27T07:05:54;22.83;;;12.68;;
23561;SDS011;11959;49.418;8.728;2022-11-27T07:08:19;19.45;;;12.13;;
23561;SDS011;11959;49.418;8.728;2022-11-27T07:10:46;19.90;;;11.80;;
23561;SDS011;11959;49.418;8.728;2022-11-27T07:13:12;20.85;;;11.93;;
23561;SDS011;11959;49.418;8.728;2022-11-27T07:15:37;22.13;;;11.95;;
23561;SDS011;11959;49.418;8.728;2022-11-27T07:18:03;22.38;;;12.77;;
23561;SDS011;11959;49.418;8.728;2022-11-27T07:20:29;21.85;;;12.10;;
23561;SDS011;11959;49.418;8.728;2022-11-27T07:22:56;22.92;;;12.80;;
23561;SDS011;11959;49.418;8.728;2022-11-27T07:25:21;21.95;;;12.00;;
23561;SDS011;11959;49.418;8.728;2022-11-27T07:27:47;24.00;;;12.57;;
23561;SDS011;11959;49.418;8.728;2022-11-27T07:30:13;21.15;;;12.55;;
23561;SDS011;11959;49.418;8.728;2022-11-27T07:32:39;21.90;;;11.43;;
23561;SDS011;11959;49.418;8.728;2022-11-27T07:35:04;21.10;;;11.63;;
23561;SDS011;11959;49.418;8.728;2022-11-27T07:37:31;21.50;;;12.40;;
23561;SDS011;11959;49.418;8.728;2022-11-27T07:39:57;21.77;;;12.38;;
23561;SDS011;11959;49.418;8.728;2022-11-27T07:42:23;19.48;;;11.25;;
23561;SDS011;11959;49.418;8.728;2022-11-27T07:44:49;25.40;;;12.77;;
23561;SDS011;11959;49.418;8.728;2022-11-27T07:47:14;23.35;;;11.98;;
23561;SDS011;11959;49.418;8.728;2022-11-27T07:49:40;20.10;;;10.98;;
23561;SDS011;11959;49.418;8.728;2022-11-27T07:52:06;22.45;;;11.50;;
23561;SDS011;11959;49.418;8.728;2022-11-27T07:54:32;19.98;;;11.85;;
23561;SDS011;11959;49.418;8.728;2022-11-27T07:56:58;20.45;;;12.10;;
23561;SDS011;11959;49.418;8.728;2022-11-27T07:59:24;21.70;;;11.98;;
23561;SDS011;11959;49.418;8.728;2022-11-27T08:01:50;22.70;;;12.48;;
23561;SDS011;11959;49.418;8.728;2022-11-27T08:04:15;21.45;;;12.20;;
23561;SDS011;11959;49.418;8.728;2022-11-27T08:06:41;21.38;;;11.85;;
23561;SDS011;11959;49.418;8.728;2022-11-27T08:09:07;21.23;;;12.40;;
23561;SDS011;11959;49.418;8.728;2022-11-27T08:11:32;23.15;;;11.75;;
23561;SDS011;11959;49.418;8.728;2022-11-27T08:14:00;18.10;;;10.60;;
23561;SDS011;11959;49.418;8.728;2022-11-27T08:16:27;19.23;;;11.10;;
23561;SDS011;11959;49.418;8.728;2022-11-27T08:18:53;20.02;;;11.40;;
23561;SDS011;11959;49.418;8.728;2022-11-27T08:21:19;21.17;;;12.35;;
23561;SDS011;11959;49.418;8.728;2022-11-27T08:23:45;19.40;;;11.00;;
23561;SDS011;11959;49.418;8.728;2022-11-27T08:26:12;20.83;;;11.27;;
23561;SDS011;11959;49.418;8.728;2022-11-27T08:28:38;17.27;;;10.57;;
23561;SDS011;11959;49.418;8.728;2022-11-27T08:31:05;18.85;;;10.52;;
23561;SDS011;11959;49.418;8.728;2022-11-27T08:33:32;19.27;;;10.13;;
23561;SDS011;11959;49.418;8.728;2022-11-27T08:35:58;22.17;;;11.23;;
23561;SDS011;11959;49.418;8.728;2022-11-27T08:38:24;19.20;;;10.20;;
23561;SDS011;11959;49.418;8.728;2022-11-27T08:40:54;14.77;;;9.75;;
23561;SDS011;11959;49.418;8.728;2022-11-27T08:43:27;17.55;;;9.38;;
23561;SDS011;11959;49.418;8.728;2022-11-27T08:45:53;15.25;;;8.98;;
23561;SDS011;11959;49.418;8.728;2022-11-27T08:48:19;15.95;;;8.68;;
23561;SDS011;11959;49.418;8.728;2022-11-27T08:50:46;20.95;;;9.32;;
23561;SDS011;11959;49.418;8.728;2022-11-27T08:53:13;19.15;;;9.07;;
23561;SDS011;11959;49.418;8.728;2022-11-27T08:55:39;17.02;;;9.00;;
23561;SDS011;11959;49.418;8.728;2022-11-27T08:58:05;13.05;;;8.20;;
23561;SDS011;11959;49.418;8.728;2022-11-27T09:00:31;15.82;;;8.77;;
23561;SDS011;11959;49.418;8.728;2022-11-27T09:02:58;19.75;;;9.80;;
23561;SDS011;11959;49.418;8.728;2022-11-27T09:05:24;14.38;;;8.23;;
23561;SDS011;11959;49.418;8.728;2022-11-27T09:07:51;15.20;;;7.90;;
23561;SDS011;11959;49.418;8.728;2022-11-27T09:10:17;14.15;;;8.40;;
23561;SDS011;11959;49.418;8.728;2022-11-27T09:12:44;13.55;;;7.97;;
23561;SDS011;11959;49.418;8.728;2022-11-27T09:15:10;14.50;;;8.52;;
23561;SDS011;11959;49.418;8.728;2022-11-27T09:17:36;15.43;;;7.75;;
23561;SDS011;11959;49.418;8.728;2022-11-27T09:20:03;15.32;;;7.80;;
23561;SDS011;11959;49.418;8.728;2022-11-27T09:22:30;21.15;;;8.90;;
23561;SDS011;11959;49.418;8.728;2022-11-27T09:24:55;13.85;;;8.18;;
23561;SDS011;11959;49.418;8.728;2022-11-27T09:27:21;10.90;;;7.40;;
23561;SDS011;11959;49.418;8.728;2022-11-27T09:29:47;16.00;;;7.55;;
23561;SDS011;11959;49.418;8.728;2022-11-27T09:32:13;16.45;;;8.00;;
23561;SDS011;11959;49.418;8.728;2022-11-27T09:34:39;11.80;;;6.78;;
23561;SDS011;11959;49.418;8.728;2022-11-27T09:37:05;15.27;;;7.70;;
23561;SDS011;11959;49.418;8.728;2022-11-27T09:39:32;13.93;;;7.03;;
23561;SDS011;11959;49.418;8.728;2022-11-27T09:41:59;15.98;;;8.95;;
23561;SDS011;11959;49.418;8.728;2022-11-27T09:44:34;16.73;;;8.38;;
23561;SDS011;11959;49.418;8.728;2022-11-27T09:52:23;15.52;;;7.75;;
23561;SDS011;11959;49.418;8.728;2022-11-27T09:55:22;12.80;;;7.57;;
23561;SDS011;11959;49.418;8.728;2022-11-27T09:57:59;10.00;;;6.30;;
23561;SDS011;11959;49.418;8.728;2022-11-27T10:00:29;9.35;;;5.40;;
23561;SDS011;11959;49.418;8.728;2022-11-27T10:02:55;15.93;;;6.88;;
23561;SDS011;11959;49.418;8.728;2022-11-27T10:05:22;11.63;;;5.43;;
23561;SDS011;11959;49.418;8.728;2022-11-27T10:15:55;12.65;;;6.07;;
23561;SDS011;11959;49.418;8.728;2022-11-27T10:22:23;9.52;;;5.05;;
23561;SDS011;11959;49.418;8.728;2022-11-27T10:27:33;8.65;;;4.80;;
23561;SDS011;11959;49.418;8.728;2022-11-27T10:30:01;9.30;;;4.95;;
23561;SDS011;11959;49.418;8.728;2022-11-27T10:32:37;7.72;;;4.90;;
23561;SDS011;11959;49.418;8.728;2022-11-27T10:35:04;9.57;;;5.53;;
23561;SDS011;11959;49.418;8.728;2022-11-27T10:37:42;7.70;;;4.78;;
23561;SDS011;11959;49.418;8.728;2022-11-27T10:42:57;6.72;;;4.60;;
23561;SDS011;11959;49.418;8.728;2022-11-27T10:48:26;8.27;;;4.78;;
23561;SDS011;11959;49.418;8.728;2022-11-27T10:50:53;9.70;;;4.43;;
23561;SDS011;11959;49.418;8.728;2022-11-27T10:53:27;8.27;;;4.72;;
23561;SDS011;11959;49.418;8.728;2022-11-27T10:56:05;8.88;;;4.50;;
23561;SDS011;11959;49.418;8.728;2022-11-27T10:59:00;6.68;;;4.47;;
23561;SDS011;11959;49.418;8.728;2022-11-27T11:01:41;8.25;;;3.92;;
23561;SDS011;11959;49.418;8.728;2022-11-27T11:04:09;5.93;;;4.18;;
23561;SDS011;11959;49.418;8.728;2022-11-27T11:06:39;9.38;;;4.65;;
23561;SDS011;11959;49.418;8.728;2022-11-27T11:09:24;10.20;;;4.35;;
23561;SDS011;11959;49.418;8.728;2022-11-27T11:11:52;6.72;;;4.30;;
23561;SDS011;11959;49.418;8.728;2022-11-27T11:14:24;6.93;;;4.05;;
23561;SDS011;11959;49.418;8.728;2022-11-27T11:16:51;8.82;;;4.50;;
23561;SDS011;11959;49.418;8.728;2022-11-27T11:19:32;6.32;;;3.90;;
23561;SDS011;11959;49.418;8.728;2022-11-27T11:22:04;7.78;;;4.03;;
23561;SDS011;11959;49.418;8.728;2022-11-27T11:24:38;6.40;;;3.75;;
23561;SDS011;11959;49.418;8.728;2022-11-27T11:27:18;7.35;;;4.20;;
23561;SDS011;11959;49.418;8.728;2022-11-27T11:29:50;7.72;;;4.00;;
23561;SDS011;11959;49.418;8.728;2022-11-27T11:32:28;6.78;;;3.83;;
23561;SDS011;11959;49.418;8.728;2022-11-27T11:35:00;6.13;;;3.50;;
23561;SDS011;11959;49.418;8.728;2022-11-27T11:37:35;5.82;;;3.20;;
23561;SDS011;11959;49.418;8.728;2022-11-27T11:43:39;7.20;;;3.22;;
23561;SDS011;11959;49.418;8.728;2022-11-27T11:46:16;6.70;;;3.63;;
23561;SDS011;11959;49.418;8.728;2022-11-27T11:56:59;7.38;;;3.60;;
23561;SDS011;11959;49.418;8.728;2022-11-27T12:16:17;10.00;;;4.28;;
23561;SDS011;11959;49.418;8.728;2022-11-27T12:21:50;6.78;;;3.40;;
23561;SDS011;11959;49.418;8.728;2022-11-27T12:27:53;6.88;;;3.75;;
23561;SDS011;11959;49.418;8.728;2022-11-27T12:30:46;6.18;;;3.72;;
23561;SDS011;11959;49.418;8.728;2022-11-27T12:41:34;4.93;;;2.88;;
23561;SDS011;11959;49.418;8.728;2022-11-27T12:44:13;5.95;;;2.97;;
23561;SDS011;11959;49.418;8.728;2022-11-27T12:49:38;4.75;;;3.20;;
23561;SDS011;11959;49.418;8.728;2022-11-27T12:52:15;6.57;;;3.30;;
23561;SDS011;11959;49.418;8.728;2022-11-27T12:55:02;4.38;;;2.53;;
23561;SDS011;11959;49.418;8.728;2022-11-27T13:03:08;5.18;;;3.03;;
23561;SDS011;11959;49.418;8.728;2022-11-27T13:08:41;4.10;;;2.35;;
23561;SDS011;11959;49.418;8.728;2022-11-27T13:11:31;3.55;;;2.08;;
23561;SDS011;11959;49.418;8.728;2022-11-27T13:16:40;3.47;;;2.08;;
23561;SDS011;11959;49.418;8.728;2022-11-27T13:19:51;3.65;;;2.13;;
23561;SDS011;11959;49.418;8.728;2022-11-27T13:22:13;4.15;;;2.47;;
23561;SDS011;11959;49.418;8.728;2022-11-27T13:24:45;4.30;;;2.30;;
23561;SDS011;11959;49.418;8.728;2022-11-27T13:29:42;4.97;;;2.33;;
23561;SDS011;11959;49.418;8.728;2022-11-27T13:32:21;2.75;;;2.13;;
23561;SDS011;11959;49.418;8.728;2022-11-27T13:34:49;4.95;;;2.67;;
23561;SDS011;11959;49.418;8.728;2022-11-27T13:39:56;4.15;;;2.60;;
23561;SDS011;11959;49.418;8.728;2022-11-27T13:42:42;4.07;;;2.40;;
23561;SDS011;11959;49.418;8.728;2022-11-27T13:45:24;4.13;;;2.58;;
23561;SDS011;11959;49.418;8.728;2022-11-27T13:47:52;3.80;;;2.22;;
23561;SDS011;11959;49.418;8.728;2022-11-27T13:50:20;7.15;;;3.03;;
23561;SDS011;11959;49.418;8.728;2022-11-27T13:53:00;4.93;;;2.45;;
23561;SDS011;11959;49.418;8.728;2022-11-27T13:55:29;4.63;;;2.53;;
23561;SDS011;11959;49.418;8.728;2022-11-27T13:57:57;2.63;;;2.40;;
23561;SDS011;11959;49.418;8.728;2022-11-27T14:00:35;4.50;;;2.55;;
23561;SDS011;11959;49.418;8.728;2022-11-27T14:03:03;3.97;;;2.50;;
23561;SDS011;11959;49.418;8.728;2022-11-27T14:05:34;4.53;;;2.88;;
23561;SDS011;11959;49.418;8.728;2022-11-27T14:08:15;5.03;;;2.38;;
23561;SDS011;11959;49.418;8.728;2022-11-27T14:10:54;3.60;;;2.40;;
23561;SDS011;11959;49.418;8.728;2022-11-27T14:13:31;5.07;;;2.22;;
23561;SDS011;11959;49.418;8.728;2022-11-27T14:16:01;3.38;;;2.17;;
23561;SDS011;11959;49.418;8.728;2022-11-27T14:18:32;3.75;;;2.60;;
23561;SDS011;11959;49.418;8.728;2022-11-27T14:20:59;4.95;;;3.20;;
23561;SDS011;11959;49.418;8.728;2022-11-27T14:23:35;5.43;;;2.90;;
23561;SDS011;11959;49.418;8.728;2022-11-27T14:28:40;4.93;;;3.05;;
23561;SDS011;11959;49.418;8.728;2022-11-27T14:31:20;4.78;;;3.45;;
23561;SDS011;11959;49.418;8.728;2022-11-27T14:33:57;8.88;;;4.30;;
23561;SDS011;11959;49.418;8.728;2022-11-27T14:36:27;5.30;;;3.10;;
23561;SDS011;11959;49.418;8.728;2022-11-27T14:38:55;4.43;;;3.30;;
23561;SDS011;11959;49.418;8.728;2022-11-27T14:41:27;3.77;;;2.83;;
23561;SDS011;11959;49.418;8.728;2022-11-27T14:44:00;5.43;;;3.25;;
23561;SDS011;11959;49.418;8.728;2022-11-27T14:46:31;5.13;;;3.17;;
23561;SDS011;11959;49.418;8.728;2022-11-27T14:48:59;6.35;;;3.30;;
23561;SDS011;11959;49.418;8.728;2022-11-27T14:51:34;7.50;;;3.75;;
23561;SDS011;11959;49.418;8.728;2022-11-27T14:54:06;6.10;;;3.28;;
23561;SDS011;11959;49.418;8.728;2022-11-27T14:56:39;6.35;;;3.70;;
23561;SDS011;11959;49.418;8.728;2022-11-27T14:59:14;4.85;;;3.00;;
23561;SDS011;11959;49.418;8.728;2022-11-27T15:01:41;6.03;;;3.75;;
23561;SDS011;11959;49.418;8.728;2022-11-27T15:04:24;6.72;;;3.65;;
23561;SDS011;11959;49.418;8.728;2022-11-27T15:06:58;6.32;;;3.50;;
23561;SDS011;11959;49.418;8.728;2022-11-27T15:09:26;7.53;;;3.80;;
23561;SDS011;11959;49.418;8.728;2022-11-27T15:11:58;7.30;;;3.45;;
23561;SDS011;11959;49.418;8.728;2022-11-27T15:14:31;6.78;;;3.63;;
23561;SDS011;11959;49.418;8.728;2022-11-27T15:16:57;9.88;;;4.72;;
23561;SDS011;11959;49.418;8.728;2022-11-27T15:19:27;9.57;;;4.00;;
23561;SDS011;11959;49.418;8.728;2022-11-27T15:21:56;7.97;;;4.88;;
23561;SDS011;11959;49.418;8.728;2022-11-27T15:24:30;10.55;;;4.82;;
23561;SDS011;11959;49.418;8.728;2022-11-27T15:27:05;9.00;;;5.20;;
23561;SDS011;11959;49.418;8.728;2022-11-27T15:29:40;5.10;;;3.72;;
23561;SDS011;11959;49.418;8.728;2022-11-27T15:32:17;7.53;;;4.10;;
23561;SDS011;11959;49.418;8.728;2022-11-27T15:34:50;10.55;;;6.65;;
23561;SDS011;11959;49.418;8.728;2022-11-27T15:37:21;7.80;;;4.07;;
23561;SDS011;11959;49.418;8.728;2022-11-27T15:39:58;6.00;;;3.47;;
23561;SDS011;11959;49.418;8.728;2022-11-27T15:42:25;6.43;;;3.63;;
23561;SDS011;11959;49.418;8.728;2022-11-27T15:44:52;6.93;;;3.53;;
23561;SDS011;11959;49.418;8.728;2022-11-27T15:47:27;6.28;;;3.83;;
23561;SDS011;11959;49.418;8.728;2022-11-27T15:49:53;7.13;;;3.95;;
23561;SDS011;11959;49.418;8.728;2022-11-27T15:52:19;5.38;;;3.88;;
23561;SDS011;11959;49.418;8.728;2022-11-27T15:54:45;4.97;;;3.28;;
23561;SDS011;11959;49.418;8.728;2022-11-27T15:57:11;5.55;;;3.55;;
23561;SDS011;11959;49.418;8.728;2022-11-27T15:59:36;7.35;;;3.88;;
23561;SDS011;11959;49.418;8.728;2022-11-27T16:02:03;5.70;;;3.90;;
23561;SDS011;11959;49.418;8.728;2022-11-27T16:04:28;5.40;;;3.65;;
23561;SDS011;11959;49.418;8.728;2022-11-27T16:06:54;5.72;;;3.53;;
23561;SDS011;11959;49.418;8.728;2022-11-27T16:09:20;5.65;;;3.65;;
23561;SDS011;11959;49.418;8.728;2022-11-27T16:11:46;5.43;;;3.95;;
23561;SDS011;11959;49.418;8.728;2022-11-27T16:14:11;4.22;;;3.28;;
23561;SDS011;11959;49.418;8.728;2022-11-27T16:16:37;5.40;;;3.95;;
23561;SDS011;11959;49.418;8.728;2022-11-27T16:19:03;7.32;;;4.05;;
23561;SDS011;11959;49.418;8.728;2022-11-27T16:21:30;5.72;;;3.97;;
23561;SDS011;11959;49.418;8.728;2022-11-27T16:23:58;7.57;;;4.10;;
23561;SDS011;11959;49.418;8.728;2022-11-27T16:26:25;7.15;;;3.92;;
23561;SDS011;11959;49.418;8.728;2022-11-27T16:28:51;5.45;;;4.40;;
23561;SDS011;11959;49.418;8.728;2022-11-27T16:31:17;8.90;;;5.50;;
23561;SDS011;11959;49.418;8.728;2022-11-27T16:33:43;6.82;;;4.25;;
23561;SDS011;11959;49.418;8.728;2022-11-27T16:36:10;7.38;;;4.70;;
23561;SDS011;11959;49.418;8.728;2022-11-27T16:38:37;8.70;;;5.15;;